Time;durP1;ratioP1;P1;durP2;ratioP2;P2;SDS_P1;SDS_P2;PMS_P1;PMS_P2;Temp;Humidity;BMP_temperature;BMP_pressure;BME280_temperature;BME280_humidity;BME280_pressure;Samples;Min_cycle;Max_cycle;Signal;HPM_P1;HPM_P2
2022/07/16 00:02:49;;;;;;;2.70;1.15;;;;;;;17.60;46.93;100008.44;4485187;31;35758;-78
2022/07/16 00:05:36;;;;;;;2.70;1.27;;;;;;;17.31;48.12;100007.56;4481451;31;35185;-78
2022/07/16 00:08:23;;;;;;;2.47;0.85;;;;;;;17.06;49.21;99995.69;4484020;31;35101;-79
2022/07/16 00:11:09;;;;;;;5.10;1.20;;;;;;;17.25;49.08;100003.41;4480131;31;36098;-78
2022/07/16 00:13:56;;;;;;;3.37;1.30;;;;;;;17.06;49.44;100001.22;4482231;31;35507;-78
2022/07/16 00:16:44;;;;;;;3.20;1.08;;;;;;;17.24;49.79;99998.22;4495149;31;34150;-78
2022/07/16 00:19:30;;;;;;;3.28;1.08;;;;;;;17.20;48.78;100000.06;4473839;31;34303;-78
2022/07/16 00:22:17;;;;;;;2.50;1.10;;;;;;;17.88;46.87;99991.91;4496775;31;34952;-78
2022/07/16 00:25:05;;;;;;;2.65;1.08;;;;;;;17.68;47.21;99992.84;4496895;31;34648;-78
2022/07/16 00:27:52;;;;;;;2.47;1.20;;;;;;;17.17;48.81;99995.22;4485048;31;34120;-78
2022/07/16 00:30:38;;;;;;;2.75;1.15;;;;;;;17.07;49.01;99996.47;4484729;31;35745;-78
2022/07/16 00:33:25;;;;;;;3.75;1.40;;;;;;;17.57;47.67;100002.81;4496652;31;35016;-78
2022/07/16 00:36:12;;;;;;;2.50;1.33;;;;;;;18.02;45.99;99996.25;4496848;31;34559;-78
2022/07/16 00:38:59;;;;;;;2.85;1.30;;;;;;;17.05;48.51;99996.84;4496581;31;34160;-78
2022/07/16 00:41:47;;;;;;;2.33;1.20;;;;;;;17.07;48.87;100002.81;4496609;31;34715;-79
2022/07/16 00:44:33;;;;;;;3.08;1.50;;;;;;;17.47;47.49;100002.09;4484864;31;35112;-78
2022/07/16 00:47:20;;;;;;;2.75;1.05;;;;;;;18.34;45.28;99999.91;4495855;31;34861;-79
2022/07/16 00:50:07;;;;;;;4.43;1.12;;;;;;;18.15;46.16;100000.56;4495881;31;34087;-78
2022/07/16 00:52:54;;;;;;;3.25;1.20;;;;;;;17.96;45.92;99993.72;4483407;31;35510;-79
2022/07/16 00:55:41;;;;;;;2.75;1.25;;;;;;;17.75;46.38;100006.91;4484574;31;35011;-79
2022/07/16 00:58:28;;;;;;;2.50;1.17;;;;;;;18.73;45.26;99994.63;4484582;31;35349;-78
2022/07/16 01:01:17;;;;;;;2.60;1.30;;;;;;;18.17;46.00;100003.81;4496724;31;34096;-78
2022/07/16 01:04:04;;;;;;;4.37;1.10;;;;;;;18.01;46.35;100005.72;4484417;31;34610;-78
2022/07/16 01:06:52;;;;;;;3.28;1.30;;;;;;;17.81;46.67;100013.84;4484174;31;34573;-78
2022/07/16 01:09:39;;;;;;;3.67;1.10;;;;;;;18.25;46.10;100010.37;4484238;31;34492;-78
2022/07/16 01:12:26;;;;;;;2.67;1.20;;;;;;;18.52;44.97;100011.50;4496309;31;35005;-78
2022/07/16 01:15:12;;;;;;;2.05;1.02;;;;;;;18.50;44.84;100009.09;4496528;31;35614;-79
2022/07/16 01:17:59;;;;;;;3.83;1.23;;;;;;;18.27;45.63;100014.41;4490029;31;34916;-78
2022/07/16 01:20:46;;;;;;;5.53;2.00;;;;;;;17.50;47.45;100004.22;4490649;31;35444;-79
2022/07/16 01:23:33;;;;;;;4.40;1.02;;;;;;;17.61;47.56;100012.03;4481536;31;34038;-78
2022/07/16 01:26:20;;;;;;;2.83;1.10;;;;;;;17.73;47.09;100014.75;4470652;31;34525;-79
2022/07/16 01:29:07;;;;;;;2.70;1.30;;;;;;;18.03;46.20;100004.19;4483831;31;35644;-79
2022/07/16 01:31:54;;;;;;;3.22;1.10;;;;;;;17.88;46.82;100014.06;4489805;31;35457;-79
2022/07/16 01:34:40;;;;;;;2.12;1.00;;;;;;;17.95;46.33;100007.94;4483432;31;35103;-79
2022/07/16 01:37:27;;;;;;;3.80;1.05;;;;;;;18.02;46.41;100004.56;4488482;31;34378;-79
2022/07/16 01:40:13;;;;;;;4.80;1.08;;;;;;;18.45;45.33;100003.78;4480403;31;36001;-79
2022/07/16 01:43:00;;;;;;;3.97;1.17;;;;;;;18.42;46.04;100015.59;4480931;31;35442;-79
2022/07/16 01:45:49;;;;;;;1.95;1.12;;;;;;;17.99;46.30;100003.31;4494939;31;34735;-79
2022/07/16 01:48:36;;;;;;;2.03;1.05;;;;;;;18.25;45.62;100008.41;4483056;31;34709;-79
2022/07/16 01:51:22;;;;;;;3.12;1.10;;;;;;;17.89;46.61;100004.59;4491915;31;34667;-79
2022/07/16 01:54:09;;;;;;;3.92;1.05;;;;;;;18.24;45.93;100017.84;4486992;31;34833;-79
2022/07/16 01:56:56;;;;;;;5.62;1.33;;;;;;;18.39;45.67;100016.31;4472512;31;34311;-79
2022/07/16 01:59:43;;;;;;;4.10;1.15;;;;;;;17.70;47.29;100019.06;4478356;31;34106;-79
2022/07/16 02:02:31;;;;;;;3.42;1.27;;;;;;;18.05;46.35;100012.97;4481607;31;35894;-79
2022/07/16 02:05:19;;;;;;;2.30;1.20;;;;;;;17.81;47.08;100021.38;4486135;31;34221;-79
2022/07/16 02:08:05;;;;;;;2.33;1.17;;;;;;;17.64;47.66;100014.09;4481340;31;34054;-78
2022/07/16 02:10:53;;;;;;;2.03;1.00;;;;;;;17.32;48.17;100008.38;4489397;31;35307;-78
2022/07/16 02:13:39;;;;;;;3.28;1.12;;;;;;;17.07;49.26;100008.34;4488892;31;35005;-78
2022/07/16 02:16:26;;;;;;;3.00;0.88;;;;;;;17.33;49.33;100012.75;4482026;31;34628;-79
2022/07/16 02:19:13;;;;;;;2.80;1.12;;;;;;;17.91;47.92;100018.12;4497199;31;34742;-79
2022/07/16 02:22:00;;;;;;;4.20;1.50;;;;;;;17.53;49.37;100009.06;4497635;31;34460;-79
2022/07/16 02:24:46;;;;;;;2.30;1.00;;;;;;;17.77;48.44;100010.16;4497846;31;36077;-79
2022/07/16 02:27:32;;;;;;;4.18;1.10;;;;;;;17.31;50.25;100012.31;4497819;31;34199;-78
2022/07/16 02:30:19;;;;;;;2.78;1.20;;;;;;;17.49;49.63;100013.66;4497886;31;33726;-78
2022/07/16 02:33:06;;;;;;;2.22;1.00;;;;;;;17.50;50.42;100012.53;4497940;31;34640;-78
2022/07/16 02:35:52;;;;;;;3.95;1.40;;;;;;;17.09;50.64;100006.06;4497293;31;34646;-78
2022/07/16 02:38:40;;;;;;;3.35;1.40;;;;;;;16.00;54.23;100007.38;4485787;31;35445;-78
2022/07/16 02:41:27;;;;;;;2.70;1.20;;;;;;;16.80;52.64;100003.50;4497932;31;34081;-78
2022/07/16 02:44:14;;;;;;;3.47;1.08;;;;;;;16.99;51.74;100006.53;4497923;31;35564;-78
2022/07/16 02:47:01;;;;;;;2.78;1.25;;;;;;;17.47;50.99;100002.09;4497696;31;35045;-79
2022/07/16 02:49:49;;;;;;;3.35;1.40;;;;;;;17.19;52.21;100015.06;4475194;31;35664;-78
2022/07/16 02:52:36;;;;;;;3.70;1.20;;;;;;;17.30;52.00;100019.81;4497696;31;34440;-78
2022/07/16 02:55:23;;;;;;;3.80;1.42;;;;;;;17.26;51.70;100012.53;4485538;31;35166;-79
2022/07/16 02:58:09;;;;;;;5.12;1.25;;;;;;;16.64;52.78;100017.97;4485618;31;35002;-78
2022/07/16 03:00:56;;;;;;;2.85;1.30;;;;;;;15.92;55.11;100020.13;4497577;31;34626;-79
2022/07/16 03:03:43;;;;;;;4.15;1.50;;;;;;;16.50;53.49;100023.00;4485260;31;33731;-79
2022/07/16 03:06:30;;;;;;;4.07;1.60;;;;;;;16.99;52.60;100022.31;4497647;31;34727;-79
2022/07/16 03:09:16;;;;;;;3.45;1.40;;;;;;;16.17;54.28;100023.81;4497452;31;35993;-79
2022/07/16 03:12:03;;;;;;;4.70;1.48;;;;;;;17.27;51.35;100022.44;4485452;31;34673;-78
2022/07/16 03:14:49;;;;;;;4.20;1.35;;;;;;;16.66;54.01;100030.66;4485326;31;35362;-78
2022/07/16 03:17:36;;;;;;;3.22;1.30;;;;;;;17.11;51.90;100032.63;4492055;31;34696;-78
2022/07/16 03:20:23;;;;;;;5.53;1.65;;;;;;;16.86;52.75;100027.03;4485019;31;34494;-78
2022/07/16 03:23:10;;;;;;;3.17;1.42;;;;;;;15.46;58.28;100030.16;4480657;31;34525;-78
2022/07/16 03:25:56;;;;;;;2.80;1.30;;;;;;;16.81;53.96;100030.81;4483489;31;34180;-78
2022/07/16 03:28:42;;;;;;;3.62;1.20;;;;;;;15.28;57.64;100029.47;4489034;31;35271;-78
2022/07/16 03:31:29;;;;;;;2.95;1.62;;;;;;;16.09;57.11;100030.22;4493776;31;34963;-78
2022/07/16 03:34:18;;;;;;;3.22;1.58;;;;;;;15.44;58.23;100042.69;4495582;31;33459;-78
2022/07/16 03:37:07;;;;;;;3.03;1.50;;;;;;;15.92;56.50;100038.66;4487320;31;35208;-79
2022/07/16 03:39:54;;;;;;;3.33;1.20;;;;;;;16.76;53.84;100032.97;4484423;31;34630;-78
2022/07/16 03:42:40;;;;;;;2.55;1.17;;;;;;;17.08;52.01;100036.87;4484352;31;34983;-78
2022/07/16 03:45:28;;;;;;;5.47;1.45;;;;;;;17.01;52.14;100042.97;4480363;31;34778;-78
2022/07/16 03:48:14;;;;;;;5.12;1.42;;;;;;;17.07;51.75;100041.59;4482624;31;34287;-78
2022/07/16 03:51:02;;;;;;;4.57;1.62;;;;;;;17.17;51.55;100042.31;4485314;31;34530;-78
2022/07/16 03:53:49;;;;;;;2.35;1.27;;;;;;;17.28;50.88;100047.03;4490046;31;34931;-79
2022/07/16 03:56:36;;;;;;;4.93;2.37;;;;;;;17.30;52.05;100046.66;4482063;31;34585;-78
2022/07/16 03:59:23;;;;;;;3.42;2.22;;;;;;;17.30;52.06;100052.22;4487861;31;33788;-78
2022/07/16 04:02:10;;;;;;;4.62;1.55;;;;;;;16.87;52.81;100053.56;4490320;31;35502;-78
2022/07/16 04:04:56;;;;;;;2.85;1.48;;;;;;;16.98;53.41;100053.94;4485359;31;36006;-78
2022/07/16 04:07:42;;;;;;;3.40;1.60;;;;;;;16.39;54.78;100050.28;4483479;31;34216;-78
2022/07/16 04:10:36;;;;;;;2.62;1.35;;;;;;;16.93;53.54;100049.41;4487444;31;34989;-78
2022/07/16 04:13:22;;;;;;;2.75;1.42;;;;;;;17.11;53.54;100052.00;4483859;31;34661;-78
2022/07/16 04:16:10;;;;;;;2.78;1.50;;;;;;;17.08;53.59;100048.75;4485865;31;35920;-78
2022/07/16 04:18:56;;;;;;;2.53;1.23;;;;;;;15.75;56.34;100058.94;4460151;32;34562;-79
2022/07/16 04:21:43;;;;;;;4.25;1.60;;;;;;;15.56;56.62;100050.25;4481150;32;33809;-79
2022/07/16 04:24:31;;;;;;;3.20;1.42;;;;;;;15.25;58.40;100057.75;4480597;32;35566;-79
2022/07/16 04:27:19;;;;;;;2.75;1.48;;;;;;;15.39;57.79;100053.91;4481249;32;35031;-79
2022/07/16 04:30:08;;;;;;;3.22;1.60;;;;;;;16.09;55.86;100052.34;4480636;32;35509;-78
2022/07/16 04:32:56;;;;;;;5.15;1.60;;;;;;;15.38;57.63;100052.31;4469335;32;33801;-78
2022/07/16 04:35:43;;;;;;;2.97;1.50;;;;;;;15.03;59.10;100058.00;4481089;32;36937;-79
2022/07/16 04:38:30;;;;;;;6.10;1.50;;;;;;;15.02;58.94;100059.12;4481209;32;33931;-78
2022/07/16 04:41:18;;;;;;;4.62;1.35;;;;;;;15.84;56.66;100054.16;4481055;32;34620;-78
2022/07/16 04:44:05;;;;;;;3.50;2.05;;;;;;;16.44;54.82;100054.78;4480154;32;34325;-79
2022/07/16 04:46:51;;;;;;;3.65;1.67;;;;;;;15.88;55.54;100046.81;4481025;32;35423;-79
2022/07/16 04:49:40;;;;;;;5.25;1.50;;;;;;;16.16;54.72;100047.06;4479951;32;35905;-78
2022/07/16 04:52:30;;;;;;;3.70;1.40;;;;;;;15.78;56.00;100055.50;4481273;32;35462;-79
2022/07/16 04:55:19;;;;;;;4.93;1.58;;;;;;;15.97;56.08;100055.06;4481115;32;34082;-79
2022/07/16 04:58:05;;;;;;;3.55;1.20;;;;;;;16.41;55.72;100050.75;4481319;32;35023;-78
2022/07/16 05:00:51;;;;;;;5.25;1.50;;;;;;;16.17;55.76;100058.94;4481521;32;35002;-79
2022/07/16 05:03:39;;;;;;;4.07;1.40;;;;;;;16.10;55.68;100053.94;4468857;32;34591;-79
2022/07/16 05:06:26;;;;;;;3.10;1.30;;;;;;;16.56;53.66;100059.56;4481555;32;34199;-79
2022/07/16 05:09:13;;;;;;;4.28;1.50;;;;;;;16.95;51.96;100051.84;4481572;32;34581;-79
2022/07/16 05:12:01;;;;;;;5.20;1.48;;;;;;;17.08;52.52;100057.06;4481352;32;33642;-79
2022/07/16 05:14:51;;;;;;;2.70;1.10;;;;;;;16.44;52.67;100063.09;4468836;32;34707;-79
2022/07/16 05:17:39;;;;;;;7.30;1.62;;;;;;;16.57;53.46;100064.75;4488976;31;34231;-79
2022/07/16 05:20:25;;;;;;;3.87;1.30;;;;;;;17.02;52.89;100065.94;4496608;31;35607;-79
2022/07/16 05:23:12;;;;;;;3.12;1.37;;;;;;;17.64;51.04;100063.97;4496594;31;35958;-79
2022/07/16 05:25:59;;;;;;;2.50;1.15;;;;;;;18.00;50.44;100065.91;4484514;31;34647;-79
2022/07/16 05:28:47;;;;;;;3.90;1.25;;;;;;;17.62;50.35;100060.75;4484629;31;34177;-80
2022/07/16 05:31:35;;;;;;;4.85;1.50;;;;;;;17.25;50.52;100060.78;4496698;31;35586;-80
2022/07/16 05:34:22;;;;;;;6.32;1.33;;;;;;;17.24;50.61;100054.41;4484634;31;34896;-79
2022/07/16 05:37:08;;;;;;;3.10;1.20;;;;;;;17.13;50.65;100066.28;4496496;31;35491;-79
2022/07/16 05:39:56;;;;;;;5.00;1.33;;;;;;;17.40;51.17;100068.38;4495807;31;35298;-79
2022/07/16 05:42:42;;;;;;;5.60;1.37;;;;;;;17.39;50.50;100064.00;4496269;31;33547;-80
2022/07/16 05:45:35;;;;;;;4.00;1.27;;;;;;;17.67;50.40;100068.81;4496886;31;35017;-80
2022/07/16 05:48:21;;;;;;;2.20;1.30;;;;;;;17.76;49.85;100069.53;4496384;31;35455;-79
2022/07/16 05:51:10;;;;;;;5.28;1.33;;;;;;;17.79;49.64;100073.56;4496629;31;35110;-79
2022/07/16 05:53:59;;;;;;;5.03;1.30;;;;;;;18.24;48.55;100070.56;4496798;31;34422;-79
2022/07/16 05:56:49;;;;;;;3.33;1.30;;;;;;;18.20;48.07;100070.47;4495407;31;36100;-80
2022/07/16 05:59:37;;;;;;;1.50;1.05;;;;;;;18.49;48.96;100076.03;4496571;31;34670;-80
2022/07/16 06:02:24;;;;;;;3.60;1.30;;;;;;;18.54;48.41;100064.66;4496051;31;34324;-79
2022/07/16 06:05:15;;;;;;;;;;;;;;;18.71;47.27;100067.13;4485518;31;35641;-81
2022/07/16 06:08:03;;;;;;;2.58;1.20;;;;;;;18.79;47.60;100071.75;4498125;31;34895;-80
2022/07/16 06:10:52;;;;;;;2.95;1.20;;;;;;;18.22;47.75;100067.34;4497244;31;34714;-80
2022/07/16 06:13:41;;;;;;;4.30;1.60;;;;;;;18.74;46.66;100066.44;4484886;31;34045;-81
2022/07/16 06:16:28;;;;;;;3.67;1.58;;;;;;;18.60;47.51;100072.38;4496886;31;34356;-81
2022/07/16 06:19:17;;;;;;;2.62;1.30;;;;;;;18.80;47.18;100073.34;4473545;31;35920;-81
2022/07/16 06:22:06;;;;;;;3.17;1.37;;;;;;;19.07;46.52;100066.12;4485009;31;35451;-81
2022/07/16 06:24:52;;;;;;;2.62;1.27;;;;;;;18.74;47.57;100077.53;4495974;31;33789;-81
2022/07/16 06:27:43;;;;;;;3.92;1.20;;;;;;;18.88;46.82;100085.47;4483667;31;35598;-81
2022/07/16 06:30:31;;;;;;;4.00;1.20;;;;;;;19.04;46.30;100088.22;4483944;31;34886;-81
2022/07/16 06:33:19;;;;;;;5.68;1.40;;;;;;;19.52;45.05;100078.75;4495531;31;35039;-81
2022/07/16 06:39:07;;;;;;;3.00;1.25;;;;;;;19.24;46.08;100084.41;4495275;31;34569;-81
2022/07/16 06:41:55;;;;;;;8.55;1.40;;;;;;;19.44;46.36;100081.69;4483274;31;34937;-81
2022/07/16 06:44:41;;;;;;;3.10;1.20;;;;;;;19.31;46.09;100084.56;4495720;31;35552;-81
2022/07/16 06:47:28;;;;;;;2.60;1.65;;;;;;;19.51;44.69;100087.44;4496625;31;33707;-81
2022/07/16 06:50:15;;;;;;;2.70;1.20;;;;;;;19.11;45.93;100091.22;4495595;31;35646;-81
2022/07/16 06:53:06;;;;;;;5.35;1.42;;;;;;;19.44;45.57;100088.09;4498088;31;35993;-82
2022/07/16 06:55:55;;;;;;;3.62;1.27;;;;;;;19.38;44.99;100092.31;4497745;31;34627;-81
2022/07/16 06:58:44;;;;;;;4.87;1.67;;;;;;;19.73;45.45;100086.81;4498789;31;35835;-80
2022/07/16 07:01:39;;;;;;;3.42;1.40;;;;;;;19.91;44.32;100087.19;4498487;31;35723;-81
2022/07/16 07:04:26;;;;;;;3.15;1.40;;;;;;;20.11;43.95;100090.81;4497886;31;35334;-81
2022/07/16 07:07:13;;;;;;;4.30;1.40;;;;;;;20.33;43.25;100088.50;4498252;31;34188;-81
2022/07/16 07:10:00;;;;;;;3.53;1.83;;;;;;;20.33;42.99;100082.94;4499524;31;35029;-82
2022/07/16 07:12:52;;;;;;;3.25;1.25;;;;;;;20.61;42.39;100077.97;4497190;31;34639;-81
2022/07/16 07:15:40;;;;;;;3.30;1.17;;;;;;;20.90;43.17;100084.06;4497300;31;34655;-81
2022/07/16 07:18:36;;;;;;;3.08;1.35;;;;;;;21.13;42.51;100075.72;4497272;31;35448;-82
2022/07/16 07:21:26;;;;;;;2.70;1.50;;;;;;;21.34;42.80;100076.09;4497923;31;34097;-81
2022/07/16 07:24:15;;;;;;;3.55;1.02;;;;;;;21.22;40.51;100086.62;4497789;31;33704;-81
2022/07/16 07:27:23;;;;;;;3.97;1.45;;;;;;;21.65;40.25;100082.56;4498192;31;34872;-81
2022/07/16 07:30:13;;;;;;;4.22;1.20;;;;;;;21.23;40.85;100085.44;4497883;31;34903;-82
2022/07/16 07:33:01;;;;;;;1.70;1.17;;;;;;;21.45;39.91;100075.47;4497745;31;34371;-82
2022/07/16 07:35:49;;;;;;;1.80;0.98;;;;;;;21.36;40.67;100070.13;4497869;31;34413;-81
2022/07/16 07:38:36;;;;;;;3.15;1.10;;;;;;;21.19;39.35;100079.81;4498909;31;34918;-81
2022/07/16 07:41:23;;;;;;;3.95;1.48;;;;;;;21.74;38.83;100080.34;4498003;31;34185;-81
2022/07/16 07:44:10;;;;;;;4.68;1.65;;;;;;;21.91;38.88;100076.16;4497505;31;34152;-82
2022/07/16 07:46:59;;;;;;;2.90;1.27;;;;;;;22.14;38.11;100076.09;4497014;31;34643;-81
2022/07/16 07:49:47;;;;;;;1.52;0.98;;;;;;;22.58;38.29;100080.25;4497442;31;34994;-81
2022/07/16 07:52:38;;;;;;;2.33;1.15;;;;;;;22.52;36.27;100077.00;4497507;31;34723;-81
2022/07/16 07:55:26;;;;;;;3.20;1.30;;;;;;;22.13;36.72;100070.87;4485273;31;33986;-81
2022/07/16 07:58:21;;;;;;;3.15;1.08;;;;;;;22.29;36.89;100077.13;4497034;31;35508;-81
2022/07/16 08:01:11;;;;;;;3.78;1.70;;;;;;;22.62;36.32;100073.50;4485710;31;34519;-81
2022/07/16 08:04:15;;;;;;;1.73;1.05;;;;;;;22.70;35.50;100066.00;4486340;31;34693;-81
2022/07/16 08:07:05;;;;;;;3.30;1.10;;;;;;;22.07;34.57;100072.41;4497658;31;34530;-81
2022/07/16 08:09:53;;;;;;;2.42;1.20;;;;;;;22.81;34.86;100061.34;4495771;31;34690;-81
2022/07/16 08:12:44;;;;;;;3.08;1.25;;;;;;;23.60;36.18;100058.44;4497473;31;34647;-81
2022/07/16 08:15:31;;;;;;;4.65;1.62;;;;;;;23.41;34.43;100065.09;4497358;31;34729;-80
2022/07/16 08:18:19;;;;;;;4.00;1.85;;;;;;;23.06;33.65;100055.22;4485651;31;34980;-82
2022/07/16 08:21:06;;;;;;;2.78;1.10;;;;;;;23.13;33.61;100055.28;4493669;31;34608;-81
2022/07/16 08:27:01;;;;;;;3.05;1.12;;;;;;;23.79;32.56;100042.22;4490733;31;34771;-81
2022/07/16 08:29:49;;;;;;;1.87;1.08;;;;;;;23.82;32.32;100046.22;4484167;31;33956;-81
2022/07/16 08:32:36;;;;;;;3.37;1.10;;;;;;;23.84;32.11;100054.22;4494894;31;34722;-80
2022/07/16 08:35:24;;;;;;;2.90;1.58;;;;;;;23.91;30.48;100037.50;4489945;31;35987;-81
2022/07/16 08:38:13;;;;;;;4.15;1.42;;;;;;;23.96;31.62;100049.12;4483788;31;34143;-82
2022/07/16 08:41:02;;;;;;;2.70;1.30;;;;;;;24.22;31.20;100047.22;4485351;31;35127;-82
2022/07/16 08:43:49;;;;;;;3.42;1.30;;;;;;;24.34;30.95;100046.06;4480004;31;34306;-82
2022/07/16 08:46:37;;;;;;;3.50;1.20;;;;;;;24.43;30.24;100052.94;4486894;31;35942;-82
2022/07/16 08:49:27;;;;;;;4.20;1.95;;;;;;;24.47;30.14;100041.72;4481073;31;35404;-80
2022/07/16 08:52:20;;;;;;;3.10;1.40;;;;;;;24.26;30.26;100050.84;4484766;31;35026;-81
2022/07/16 08:55:11;;;;;;;5.32;1.55;;;;;;;24.86;29.50;100041.81;4485867;31;34413;-81
2022/07/16 08:58:08;;;;;;;2.50;1.30;;;;;;;24.39;29.37;100040.06;4495962;31;34998;-82
2022/07/16 09:01:01;;;;;;;5.25;1.52;;;;;;;24.79;30.46;100046.59;4487061;31;34368;-81
2022/07/16 09:03:49;;;;;;;2.72;1.65;;;;;;;24.35;29.49;100045.66;4489018;31;33978;-82
2022/07/16 09:06:37;;;;;;;2.28;1.37;;;;;;;24.64;30.23;100040.97;4495998;31;34941;-81
2022/07/16 09:09:27;;;;;;;4.72;1.40;;;;;;;24.71;30.10;100042.22;4486652;31;34939;-82
2022/07/16 09:12:42;;;;;;;2.78;1.77;;;;;;;24.78;29.24;100039.41;4493421;31;35816;-82
2022/07/16 09:15:35;;;;;;;4.50;1.33;;;;;;;24.37;29.97;100039.69;4484571;31;34980;-81
2022/07/16 09:18:25;;;;;;;3.58;1.50;;;;;;;24.62;29.52;100034.19;4484547;31;35509;-82
2022/07/16 09:21:26;;;;;;;5.72;1.77;;;;;;;25.31;28.73;100019.84;4475727;31;34819;-81
2022/07/16 09:24:31;;;;;;;4.15;1.75;;;;;;;25.31;29.49;100030.25;4487752;31;34778;-82
2022/07/16 09:27:24;;;;;;;2.10;1.40;;;;;;;25.52;29.26;100027.41;4493870;31;34396;-81
2022/07/16 09:30:23;;;;;;;3.47;1.50;;;;;;;25.87;27.75;100024.94;4479222;31;34576;-82
2022/07/16 09:33:13;;;;;;;3.60;1.70;;;;;;;26.28;27.62;100019.59;4479989;31;34856;-81
2022/07/16 09:36:10;;;;;;;4.10;1.77;;;;;;;26.61;26.96;100023.03;4481995;31;35456;-81
2022/07/16 09:39:12;;;;;;;6.18;1.30;;;;;;;26.39;26.89;100022.34;4480880;31;34254;-82
2022/07/16 09:42:03;;;;;;;2.95;1.98;;;;;;;25.93;27.20;100024.16;4486156;31;34219;-81
2022/07/16 09:45:01;;;;;;;3.97;1.70;;;;;;;25.54;27.70;100019.41;4480135;31;34599;-83
2022/07/16 09:47:55;;;;;;;3.75;1.50;;;;;;;26.03;28.76;100020.47;4484718;31;35468;-81
2022/07/16 09:50:57;;;;;;;2.92;1.40;;;;;;;25.78;28.03;100022.53;4480865;31;33058;-81
2022/07/16 09:53:51;;;;;;;4.35;1.70;;;;;;;26.25;28.06;100015.59;4482521;31;35587;-82
2022/07/16 09:56:38;;;;;;;5.35;1.83;;;;;;;26.48;27.56;100020.69;4484786;31;34446;-81
2022/07/16 09:59:26;;;;;;;3.33;1.62;;;;;;;25.74;28.29;100027.37;4486044;31;34717;-82
2022/07/16 10:02:33;;;;;;;8.48;1.70;;;;;;;25.87;28.25;100020.16;4479194;31;33635;-82
2022/07/16 10:05:23;;;;;;;4.78;1.60;;;;;;;25.44;28.83;100020.19;4492370;31;35626;-82
2022/07/16 10:08:10;;;;;;;3.00;1.73;;;;;;;26.20;29.49;100009.59;4479107;31;35108;-82
2022/07/16 10:10:58;;;;;;;3.08;1.62;;;;;;;26.64;27.11;100010.97;4482822;31;34618;-82
2022/07/16 10:13:48;;;;;;;4.95;1.80;;;;;;;26.59;27.19;100008.62;4491087;31;33042;-82
2022/07/16 10:16:42;;;;;;;5.43;1.85;;;;;;;26.62;28.41;100014.19;4495031;31;34642;-83
2022/07/16 10:19:34;;;;;;;2.92;1.70;;;;;;;26.21;27.89;99997.97;4478963;31;35900;-82
2022/07/16 10:22:29;;;;;;;4.45;1.65;;;;;;;26.50;29.70;99999.78;4491501;31;34822;-82
2022/07/16 10:25:20;;;;;;;3.47;1.65;;;;;;;27.03;28.34;99993.00;4482927;31;34320;-82
2022/07/16 10:28:36;;;;;;;3.72;1.98;;;;;;;27.63;27.35;99979.59;4497868;31;35340;-82
2022/07/16 10:34:56;;;;;;;5.40;2.08;;;;;;;27.98;26.30;99972.78;4486092;31;34489;-82
2022/07/16 10:37:43;;;;;;;4.65;2.08;;;;;;;27.37;26.54;99967.81;4470860;31;32977;-81
2022/07/16 10:41:15;;;;;;;4.30;1.90;;;;;;;27.39;27.87;99973.03;4496734;31;35640;-83
2022/07/16 10:44:09;;;;;;;5.28;1.90;;;;;;;26.69;27.37;99971.19;4497332;31;35892;-83
2022/07/16 10:47:05;;;;;;;3.03;1.95;;;;;;;27.01;28.06;99968.13;4482168;31;35440;-83
2022/07/16 10:50:15;;;;;;;5.20;2.05;;;;;;;27.02;28.53;99966.12;4490800;31;34213;-83
2022/07/16 10:53:02;;;;;;;6.80;2.33;;;;;;;28.25;28.54;99953.09;4497617;31;35610;-81
2022/07/16 10:55:53;;;;;;;5.47;2.08;;;;;;;27.84;26.91;99947.63;4487931;31;35145;-82
2022/07/16 10:58:47;;;;;;;3.30;2.30;;;;;;;27.58;27.53;99944.28;4497176;31;34672;-82
2022/07/16 11:01:42;;;;;;;3.50;2.15;;;;;;;27.96;27.18;99942.22;4484995;31;34155;-83
2022/07/16 11:05:02;;;;;;;6.20;2.50;;;;;;;27.60;27.45;99947.47;4480599;31;34662;-83
2022/07/16 11:08:07;;;;;;;5.25;2.37;;;;;;;26.80;28.75;99946.59;4482131;31;33943;-83
2022/07/16 11:10:55;;;;;;;3.55;2.20;;;;;;;27.91;26.70;99930.63;4480546;31;35568;-83
2022/07/16 11:13:49;;;;;;;4.72;2.20;;;;;;;28.43;27.09;99924.69;4482055;31;33659;-84
2022/07/16 11:16:51;;;;;;;3.83;2.15;;;;;;;27.64;28.04;99930.56;4485917;31;34103;-84
2022/07/16 11:19:42;;;;;;;4.15;2.28;;;;;;;27.39;27.74;99944.91;4488064;31;35596;-83
2022/07/16 11:22:31;;;;;;;3.80;1.90;;;;;;;27.59;29.06;99935.41;4480316;31;35794;-83
2022/07/16 11:25:19;;;;;;;3.72;1.87;;;;;;;28.14;27.10;99936.34;4480749;31;35237;-79
2022/07/16 11:28:15;;;;;;;2.90;2.03;;;;;;;28.11;27.00;99930.78;4496395;31;33561;-81
2022/07/16 11:31:05;;;;;;;3.42;2.20;;;;;;;28.10;27.05;99935.62;4485309;31;34328;-81
2022/07/16 11:34:13;;;;;;;5.22;2.35;;;;;;;28.22;27.44;99937.06;4484016;31;34651;-80
2022/07/16 11:37:05;;;;;;;4.00;2.20;;;;;;;28.95;26.46;99937.56;4487703;31;32845;-80
2022/07/16 11:39:58;;;;;;;5.72;2.60;;;;;;;27.81;28.02;99943.62;4494917;31;34797;-81
2022/07/16 11:42:58;;;;;;;4.05;2.47;;;;;;;27.77;27.57;99942.84;4480187;31;35982;-82
2022/07/16 11:45:51;;;;;;;4.82;1.95;;;;;;;27.78;28.36;99936.00;4495866;31;34572;-81
2022/07/16 11:48:40;;;;;;;5.45;2.30;;;;;;;28.00;27.30;99942.19;4480297;31;34106;-81
2022/07/16 11:51:30;;;;;;;4.00;2.45;;;;;;;28.36;26.56;99936.06;4481383;31;34429;-80
2022/07/16 11:54:17;;;;;;;3.67;2.10;;;;;;;29.22;25.66;99927.00;4484098;31;34633;-81
2022/07/16 11:57:08;;;;;;;6.03;2.80;;;;;;;29.55;27.21;99913.06;4482438;31;35405;-81
2022/07/16 11:59:55;;;;;;;5.23;2.20;;;;;;;29.41;25.57;99911.34;4481328;31;34229;-81
2022/07/16 12:02:57;;;;;;;3.17;2.20;;;;;;;28.43;26.47;99927.50;4481424;31;34572;-81
2022/07/16 12:08:53;;;;;;;4.57;2.37;;;;;;;28.07;27.05;99936.47;4481823;31;35315;-82
2022/07/16 12:11:43;;;;;;;3.47;2.35;;;;;;;27.34;27.75;99934.91;4481343;31;35185;-81
2022/07/16 12:15:02;;;;;;;5.10;2.28;;;;;;;28.13;27.47;99926.31;4496707;31;34697;-80
2022/07/16 12:18:13;;;;;;;5.57;2.40;;;;;;;28.60;26.40;99926.41;4492996;31;35084;-81
2022/07/16 12:21:23;;;;;;;6.05;2.37;;;;;;;29.35;25.70;99921.53;4484011;31;34787;-80
2022/07/16 12:27:14;;;;;;;3.70;2.22;;;;;;;29.41;26.21;99907.72;4496544;31;34570;-80
2022/07/16 12:30:14;;;;;;;5.10;2.42;;;;;;;29.00;25.65;99918.13;4485361;31;34953;-80
2022/07/16 12:33:03;;;;;;;3.83;2.42;;;;;;;28.83;26.43;99919.22;4496465;31;34630;-80
2022/07/16 12:35:57;;;;;;;4.55;2.58;;;;;;;28.93;26.51;99916.22;4485041;31;35112;-80
2022/07/16 12:38:52;;;;;;;4.05;2.80;;;;;;;29.31;26.33;99903.84;4496030;31;34724;-81
2022/07/16 12:41:45;;;;;;;3.78;2.58;;;;;;;29.17;25.68;99898.50;4484566;31;35601;-79
2022/07/16 12:44:35;;;;;;;6.28;2.22;;;;;;;29.88;25.34;99891.41;4473405;31;35118;-81
2022/07/16 12:47:27;;;;;;;3.37;2.10;;;;;;;30.02;24.44;99888.28;4497110;31;34121;-80
2022/07/16 12:50:15;;;;;;;4.62;2.40;;;;;;;30.18;24.51;99900.84;4496876;31;34639;-81
2022/07/16 12:53:06;;;;;;;5.05;3.00;;;;;;;28.64;26.12;99901.00;4496682;31;35907;-80
2022/07/16 12:59:04;;;;;;;5.67;3.00;;;;;;;29.21;25.39;99893.59;4496526;31;34092;-81
2022/07/16 13:01:52;;;;;;;4.00;2.10;;;;;;;29.00;25.27;99895.56;4473760;31;35676;-81
2022/07/16 13:04:41;;;;;;;5.50;2.37;;;;;;;29.70;24.60;99888.19;4484812;31;34994;-81
2022/07/16 13:07:34;;;;;;;4.60;2.30;;;;;;;29.24;24.60;99881.44;4496924;31;33628;-81
2022/07/16 13:10:25;;;;;;;4.55;2.55;;;;;;;28.56;25.70;99877.78;4496852;31;34116;-81
2022/07/16 13:13:23;;;;;;;7.30;2.33;;;;;;;29.06;25.31;99891.03;4483741;31;404162;-81
2022/07/16 13:16:17;;;;;;;4.05;2.20;;;;;;;29.41;24.30;99880.28;4485655;31;35838;-80
2022/07/16 13:19:11;;;;;;;5.28;2.60;;;;;;;28.87;24.69;99883.28;4475002;31;36519;-82
2022/07/16 13:22:00;;;;;;;3.58;2.45;;;;;;;28.99;24.34;99890.34;4496816;31;34395;-80
2022/07/16 13:24:50;;;;;;;8.30;2.70;;;;;;;28.29;25.79;99896.69;4497179;31;35656;-79
2022/07/16 13:27:39;;;;;;;3.72;2.50;;;;;;;29.23;24.86;99889.13;4496337;31;35034;-80
2022/07/16 13:30:34;;;;;;;7.82;2.47;;;;;;;28.89;25.10;99895.75;4496138;31;34816;-79
2022/07/16 13:33:23;;;;;;;5.53;2.55;;;;;;;29.78;25.17;99907.38;4496611;31;33764;-78